Flight Track Log - Related Links

Times and Time Zones

All times are in EST time to prevent confusion due to time zone crossing. See the AAY863 flight status page for this flight to view local times or setup timezone preferences in your user account.

Time Position Orientation Groundspeed Altitude Reporting Facility
EST Latitude Longitude Course Direction KTS MPH feet Rate Location/Type
07:11PM 41.8475 -91.6167 138° Southeast 232 267 3,600  Level Chicago Center
07:12PM 41.8017 -91.5350 127° Southeast 268 308 6,700 3,048 Climbing Chicago Center
07:13PM 41.7375 -91.4408 132° Southeast 289 333 9,900 2,274 Climbing Chicago Center
07:14PM 41.6658 -91.3633 141° Southeast 334 384 11,400 2,081 Climbing Chicago Center
07:15PM 41.5833 -91.2839 144° Southeast 365 420 14,200 2,613 Climbing Chicago Center
07:16PM 41.1890 -91.2264 138° Southeast  Level FlightAware Approximate
07:16PM 41.4900 -91.1964 145° Southeast 380 437 16,800  Level Chicago Center
07:17PM 41.4003 -91.1089 144° Southeast 396 456 18,700 1,935 Climbing Chicago Center
07:18PM 41.3053 -91.0219 145° Southeast 412 474 20,800 1,887 Climbing Chicago Center
07:19PM 41.2106 -90.9292 144° Southeast 421 484 22,600 1,645 Climbing Chicago Center
07:20PM 41.1103 -90.8375 145° Southeast 437 503 24,200 1,597 Climbing Chicago Center
07:21PM 40.9861 -90.7222 145° Southeast 453 521 25,900 1,350 Climbing Chicago Center
07:27PM 40.3850 -90.1683 145° Southeast 492 566 33,400 1,104 Climbing FlightAware ADS-B
07:31PM 40.3850 -90.1683 146° Southeast 467 537 37,000 788 Climbing FlightAware ADS-B
07:31PM 40.3850 -90.1683 141° Southeast 473 544 37,000  Level FlightAware ADS-B
07:32PM 39.7589 -89.5942 141° Southeast 471 542 37,000  Level Kansas City Center
07:38PM 39.1733 -88.9941 142° Southeast 471 542 37,000  Level FlightAware ADS-B
07:38PM 39.1222 -88.9424 142° Southeast 471 542 37,000  Level FlightAware ADS-B
07:39PM 39.0680 -88.8877 142° Southeast 472 543 37,000  Level FlightAware ADS-B
07:40PM 39.0034 -88.8227 142° Southeast 472 543 37,000 85 Level FlightAware ADS-B
07:40PM 38.9461 -88.7653 142° Southeast 470 541 37,100  Climbing FlightAware ADS-B
07:41PM 38.8634 -88.6823 142° Southeast 467 537 37,000 -75 Descending FlightAware ADS-B
07:41PM 38.8240 -88.6428 142° Southeast 466 536 37,000  Level FlightAware ADS-B
07:42PM 38.7425 -88.5614 142° Southeast 463 533 37,000  Level FlightAware ADS-B
07:43PM 38.6921 -88.5112 142° Southeast 461 531 37,000  Level FlightAware ADS-B
07:44PM 38.5906 -88.4104 142° Southeast 459 528 37,000  Level FlightAware ADS-B
07:44PM 38.5284 -88.3489 142° Southeast 456 525 37,000  Level FlightAware ADS-B
07:45PM 38.4722 -88.2935 142° Southeast 456 525 37,000  Level FlightAware ADS-B
07:45PM 38.3958 -88.2182 142° Southeast 457 526 37,000  Level FlightAware ADS-B
07:46PM 38.3462 -88.1696 142° Southeast 456 525 37,000 83 Level FlightAware ADS-B
07:47PM 38.2744 -88.0991 142° Southeast 453 521 37,100 86 Climbing FlightAware ADS-B
07:47PM 38.2238 -88.0496 142° Southeast 451 519 37,100 -91 Level FlightAware ADS-B
07:48PM 38.1651 -87.9921 142° Southeast 448 516 37,000 -86 Descending FlightAware ADS-B
07:48PM 38.1091 -87.9371 142° Southeast 444 511 37,000  Level FlightAware ADS-B
07:49PM 38.0484 -87.8782 143° Southeast 441 507 37,000  Level FlightAware ADS-B
07:50PM 37.9825 -87.8143 142° Southeast 437 503 37,000  Level FlightAware ADS-B
07:50PM 37.9142 -87.7547 150° Southeast 418 481 37,000  Level FlightAware ADS-B
07:51PM 37.8594 -87.7190 154° Southeast 404 465 37,000  Level FlightAware ADS-B
07:52PM 37.9142 -87.7547 154° Southeast 405 466 37,000 28 Level FlightAware ADS-B
07:54PM 37.4994 -87.4989 154° Southeast 413 475 37,100 28 Climbing FlightAware ADS-B
07:56PM 37.4994 -87.4989 154° Southeast 412 474 37,100 -55 Level FlightAware ADS-B
07:56PM 37.3094 -87.3831 154° Southeast 410 472 37,000 -66 Descending FlightAware ADS-B (EPWR / WRO)
07:57PM 37.2332 -87.3370 154° Southeast 410 472 37,000  Level FlightAware ADS-B (EPWR / WRO)
07:58PM 37.1750 -87.3018 154° Southeast 409 471 37,000  Level FlightAware ADS-B (EPWR / WRO)
07:58PM 37.0918 -87.2516 155° Southeast 407 468 37,000 232 Level FlightAware ADS-B (EPWR / WRO)
08:00PM 36.9064 -87.1403 154° Southeast 407 468 37,600 403 Climbing FlightAware ADS-B (EPWR / WRO)
08:01PM 36.8298 -87.0942 154° Southeast 410 472 38,000 437 Climbing FlightAware ADS-B (EPWR / WRO)
08:03PM 36.6436 -86.9834 155° Southeast 418 481 38,700 375 Climbing FlightAware ADS-B (EPWR / WRO)
08:03PM 36.5877 -86.9503 155° Southeast 421 484 38,900 265 Climbing FlightAware ADS-B (EPWR / WRO)
08:04PM 36.5877 -86.9503 155° Southeast 420 483 39,000 71 Climbing FlightAware ADS-B (EPWR / WRO)
08:05PM 36.4335 -86.8588 155° Southeast 421 484 39,000  Level FlightAware ADS-B (EPWR / WRO)
08:06PM 36.3231 -86.7937 155° Southeast 420 483 39,000  Level FlightAware ADS-B (KMDQ)
08:07PM 36.2495 -86.7504 155° Southeast 416 479 39,000  Level FlightAware ADS-B (KMDQ)
08:07PM 36.1773 -86.7081 155° Southeast 414 476 39,000  Level FlightAware ADS-B (KMDQ)
08:08PM 36.1531 -86.6939 158° South 406 467 39,000  Level FlightAware ADS-B (KMDQ)
08:09PM 36.0578 -86.6451 158° South 407 468 39,000  Level FlightAware ADS-B (KMDQ)
08:09PM 35.9965 -86.6148 158° South 411 473 39,000  Level FlightAware ADS-B (KMDQ)
08:10PM 35.8964 -86.5649 158° South 413 475 39,000 75 Level FlightAware ADS-B (KMDQ)
08:11PM 35.8256 -86.5299 158° South 414 476 39,100 77 Climbing FlightAware ADS-B (KMDQ)
08:11PM 35.7573 -86.4961 158° South 413 475 39,100  Level FlightAware ADS-B (KMDQ)
08:12PM 35.6906 -86.4633 158° South 412 474 39,100 -75 Level FlightAware ADS-B (KMDQ)
08:13PM 35.6173 -86.4272 158° South 412 474 39,000 -76 Descending FlightAware ADS-B (KMDQ)
08:13PM 35.5413 -86.3900 158° South 412 474 39,000  Level FlightAware ADS-B (KMDQ)
08:14PM 35.4688 -86.3544 158° South 411 473 39,000 74 Level FlightAware ADS-B (KMDQ)
08:15PM 35.4032 -86.3223 158° South 408 470 39,100  Climbing FlightAware ADS-B (KMDQ)
08:15PM 35.3339 -86.2884 158° South 406 467 39,000 -76 Descending FlightAware ADS-B (KMDQ)
08:16PM 35.2622 -86.2535 158° South 404 465 39,000  Level FlightAware ADS-B (KMDQ)
08:17PM 35.1907 -86.2188 158° South 404 465 39,000  Level FlightAware ADS-B (KMDQ)
08:17PM 35.1223 -86.1856 158° South 404 465 39,000  Level FlightAware ADS-B (KMDQ)
08:18PM 35.0510 -86.1509 158° South 405 466 39,000  Level FlightAware ADS-B (KMDQ)
08:19PM 34.9842 -86.1187 158° South 404 465 39,000  Level FlightAware ADS-B (KMDQ)
08:19PM 34.9121 -86.0839 158° South 405 466 39,000  Level FlightAware ADS-B (KMDQ)
08:20PM 34.8470 -86.0524 158° South 405 466 39,000  Level FlightAware ADS-B (KMDQ)
08:21PM 34.7708 -86.0157 158° South 407 468 39,000  Level FlightAware ADS-B (KMDQ)
08:23PM 34.5482 -85.9090 159° South 409 471 39,000  Level FlightAware ADS-B (KMDQ)
08:24PM 34.4564 -85.8652 159° South 409 471 39,000  Level FlightAware ADS-B (KMDQ)
08:24PM 34.3884 -85.8326 158° South 410 472 39,000  Level FlightAware ADS-B (KMDQ)
08:25PM 34.3162 -85.7982 158° South 410 472 39,000  Level FlightAware ADS-B (KMDQ)
08:26PM 34.2440 -85.7640 159° South 410 472 39,000  Level FlightAware ADS-B (KMDQ)
08:26PM 34.1862 -85.7366 159° South 410 472 39,000  Level FlightAware ADS-B (KMDQ)
08:27PM 34.1329 -85.7115 159° South 410 472 39,000  Level FlightAware ADS-B (KMDQ)
08:27PM 34.0464 -85.6733 159° South 409 471 39,000  Level Atlanta Center
08:28PM 33.9406 -85.6214 158° South 409 471 39,000  Level Atlanta Center
08:29PM 33.8472 -85.5794 160° South 409 471 39,000  Level Atlanta Center
08:30PM 33.7394 -85.5278 158° South 409 471 39,000  Level Atlanta Center
08:31PM 33.6333 -85.4808 160° South 409 471 39,000  Level Atlanta Center
08:32PM 33.5256 -85.4292 158° South 409 471 39,000  Level Atlanta Center
08:33PM 33.4194 -85.3828 160° South 409 471 39,000  Level Atlanta Center
08:34PM 33.3117 -85.3314 158° South 409 471 39,000  Level Atlanta Center
08:35PM 33.2036 -85.2825 159° South 414 476 39,000  Level Atlanta Center
08:36PM 33.0975 -85.2339 159° South 409 471 39,000  Level Atlanta Center
08:37PM 32.9894 -85.1831 158° South 414 476 39,000  Level Atlanta Center
08:38PM 32.8731 -85.1369 162° South 406 467 39,000  Level Atlanta Center
08:39PM 32.7833 -85.1161 169° South 392 451 39,000  Level Atlanta Center
08:40PM 32.6650 -85.0703 162° South 408 470 39,000  Level Atlanta Center
08:41PM 32.5503 -85.0319 164° South 408 470 39,000  Level Atlanta Center
08:42PM 32.4381 -84.9936 164° South 415 478 39,000  Level Atlanta Center
08:43PM 32.3275 -84.9581 165° South 409 471 39,000  Level Atlanta Center
08:45PM 32.1339 -84.8944 164° South 406 467 39,000  Level Jacksonville Center
08:46PM 32.0239 -84.8578 164° South 406 467 39,000  Level Jacksonville Center
08:47PM 31.9139 -84.8211 164° South 414 476 39,000  Level Jacksonville Center
08:53PM 31.3432 -84.5973 156° South 429 494 39,000 17 Level FlightAware ADS-B (KONZ)
08:53PM 31.2426 -84.5445 156° South 427 491 39,100  Climbing FlightAware ADS-B (KONZ)
08:54PM 31.1701 -84.5067 156° South 428 493 39,000 -74 Descending FlightAware ADS-B (KONZ)
08:55PM 31.0976 -84.4688 156° South 428 493 39,000  Level FlightAware ADS-B (KONZ)
08:56PM 31.0088 -84.4225 156° South 428 493 39,000  Level FlightAware ADS-B (KONZ)
08:56PM 30.9517 -84.3927 156° South 428 493 39,000  Level FlightAware ADS-B (KONZ)
08:57PM 30.8842 -84.3576 156° South 428 493 39,000  Level FlightAware ADS-B (KONZ)
08:58PM 30.7943 -84.3109 156° South 427 491 39,000  Level FlightAware ADS-B (KONZ)
08:58PM 30.7363 -84.2808 156° South 427 491 39,000  Level FlightAware ADS-B (KONZ)
08:59PM 30.6717 -84.2474 156° South 428 493 39,000  Level FlightAware ADS-B (KONZ)
08:59PM 30.6087 -84.2149 156° South 428 493 39,000  Level FlightAware ADS-B (KONZ)
09:00PM 30.5512 -84.1852 156° South 429 494 39,000  Level FlightAware ADS-B (KONZ)
09:00PM 30.4869 -84.1520 156° South 431 496 39,000  Level FlightAware ADS-B (KONZ)
09:01PM 30.4252 -84.1204 156° South 433 498 39,000  Level FlightAware ADS-B (KONZ)
09:01PM 30.3777 -84.0960 156° South 434 499 39,000  Level FlightAware ADS-B (KONZ)
09:02PM 30.3129 -84.0628 156° South 437 503 39,000 75 Level FlightAware ADS-B (KONZ)
09:03PM 30.2194 -84.0146 156° South 437 503 39,100 67 Climbing FlightAware ADS-B (KONZ)
09:03PM 30.1496 -83.9790 156° South 437 503 39,100  Level FlightAware ADS-B (KONZ)
09:04PM 30.0551 -83.9307 156° South 436 502 39,100 -67 Level FlightAware ADS-B (KONZ)
09:05PM 29.9801 -83.8924 156° South 436 502 39,000 -66 Descending FlightAware ADS-B (KONZ)
09:06PM 29.8868 -83.8449 156° South 434 499 39,000  Level FlightAware ADS-B (KONZ)
09:06PM 29.8247 -83.8167 156° South 432 497 39,000 -313 Level Jacksonville Center
09:07PM 29.7167 -83.7606 156° South 432 497 38,500 -843 Descending Jacksonville Center
09:08PM 29.6064 -83.7047 156° South 432 497 37,300 -2,150 Descending Jacksonville Center
09:09PM 29.4961 -83.6489 156° South 432 497 34,200 -2,900 Descending Jacksonville Center
09:10PM 29.3919 -83.5981 157° South 443 510 31,500 -2,521 Descending Jacksonville Center
09:11PM 29.2817 -83.5425 156° South 443 510 29,200 -2,218 Descending Jacksonville Center
09:12PM 29.1753 -83.4825 154° Southeast 431 496 27,100 -2,100 Descending Jacksonville Center
09:13PM 29.0775 -83.4178 150° Southeast 421 484 25,000 -2,000 Descending Jacksonville Center
09:14PM 28.9817 -83.3578 151° Southeast 409 471 23,100 -1,884 Descending Jacksonville Center
09:15PM 28.8881 -83.2981 151° Southeast 398 458 21,200 -1,686 Descending Jacksonville Center
09:16PM 28.8006 -83.2433 151° Southeast 386 444 19,700 -1,664 Descending Jacksonville Center
09:17PM 28.7131 -83.1886 151° Southeast 364 419 17,900 -1,587 Descending Jacksonville Center
09:19PM 28.5667 -83.1000 152° Southeast 336 387 15,600 -1,417 Descending Tampa TRACON
09:20PM 28.5000 -83.0500 147° Southeast 327 376 14,500 -1,333 Descending Tampa TRACON
09:21PM 28.4333 -83.0000 147° Southeast 320 368 13,200 -843 Descending Tampa TRACON
09:22PM 28.3500 -82.9667 161° South 313 360 12,800 -793 Descending Tampa TRACON
09:23PM 28.2833 -82.9167 147° Southeast 288 331 11,600 -1,476 Descending Tampa TRACON
09:24PM 28.2000 -82.8833 161° South 282 325 9,700 -1,667 Descending Tampa TRACON
09:25PM 28.1333 -82.8500 156° South 280 322 8,100 -1,714 Descending Tampa TRACON
09:26PM 28.0500 -82.8333 170° South 265 305 6,100 -2,095 Descending Tampa TRACON
09:27PM 27.9833 -82.8167 168° South 258 297 3,700 -1,550 Descending Tampa TRACON
09:28PM 27.9167 -82.7833 156° South 234 269 3,000 -350 Descending Tampa TRACON
09:29PM 27.8500 -82.7667 168° South 207 238 3,000 -238 Level Tampa TRACON
09:30PM 27.7833 -82.7500 168° South 203 234 2,500 -476 Descending Tampa TRACON
09:31PM 27.7500 -82.7333 156° South 190 219 2,000 -250 Descending Tampa TRACON
09:32PM 27.7333 -82.6667 106° East 172 198 2,000  Level Tampa TRACON
09:33PM 27.7833 -82.6667 360° North 142 163 2,000 -250 Level Tampa TRACON
09:34PM 27.8167 -82.6667 360° North 147 169 1,500 -550 Descending Tampa TRACON
09:35PM 27.8500 -82.6833 336° Northwest 130 150 900 -650 Descending Tampa TRACON
09:36PM 27.9000 -82.6833 360° North 126 145 200 -700 Descending Tampa TRACON

Login

Don't have an account? Register now (free) for customized features, flight alerts, and more!